createdAt,value
2018-11-13T00:00:30.857Z,19.73
2018-11-13T00:03:00.535Z,18.17
2018-11-13T00:05:29.293Z,18.03
2018-11-13T00:07:58.039Z,18.33
2018-11-13T00:10:26.684Z,19.20
2018-11-13T00:12:55.257Z,17.87
2018-11-13T00:15:23.838Z,18.93
2018-11-13T00:17:52.377Z,18.90
2018-11-13T00:20:21.016Z,19.27
2018-11-13T00:22:49.553Z,19.20
2018-11-13T00:25:19.212Z,18.63
2018-11-13T00:27:47.599Z,18.63
2018-11-13T00:30:17.422Z,19.70
2018-11-13T00:32:45.986Z,19.20
2018-11-13T00:35:15.332Z,19.10
2018-11-13T00:37:44.172Z,19.97
2018-11-13T00:40:13.088Z,20.10
2018-11-13T00:42:42.532Z,20.93
2018-11-13T00:45:11.025Z,22.17
2018-11-13T00:47:39.600Z,22.67
2018-11-13T00:50:10.214Z,22.03
2018-11-13T00:52:38.707Z,21.43
2018-11-13T00:55:07.584Z,22.53
2018-11-13T00:57:36.893Z,24.23
2018-11-13T01:00:07.784Z,23.30
2018-11-13T01:02:36.249Z,23.67
2018-11-13T01:05:06.189Z,25.07
2018-11-13T01:07:34.600Z,22.60
2018-11-13T01:10:03.304Z,25.23
2018-11-13T01:12:31.724Z,25.70
2018-11-13T01:15:00.227Z,26.73
2018-11-13T01:17:28.753Z,24.10
2018-11-13T01:19:57.071Z,24.63
2018-11-13T01:22:25.479Z,24.27
2018-11-13T01:24:53.880Z,25.07
2018-11-13T01:27:22.501Z,27.13
2018-11-13T01:29:57.214Z,24.77
2018-11-13T01:32:27.571Z,26.00
2018-11-13T01:34:56.211Z,25.30
2018-11-13T01:37:25.317Z,24.03
2018-11-13T01:39:54.552Z,24.93
2018-11-13T01:42:23.407Z,26.37
2018-11-13T01:44:51.927Z,26.37
2018-11-13T01:47:20.667Z,26.90
2018-11-13T01:49:50.346Z,26.57
2018-11-13T01:52:18.952Z,26.77
2018-11-13T01:54:47.459Z,26.53
2018-11-13T01:57:16.134Z,27.27
2018-11-13T01:59:44.730Z,25.23
2018-11-13T02:02:13.351Z,27.70
2018-11-13T02:04:42.082Z,26.90
2018-11-13T02:07:10.727Z,25.40
2018-11-13T02:09:39.657Z,27.50
2018-11-13T02:12:08.212Z,25.17
2018-11-13T02:14:36.794Z,25.27
2018-11-13T02:17:05.623Z,27.53
2018-11-13T02:19:34.280Z,26.03
2018-11-13T02:22:02.950Z,26.10
2018-11-13T02:24:31.757Z,25.40
2018-11-13T02:27:00.322Z,25.80
2018-11-13T02:29:28.909Z,27.67
2018-11-13T02:31:57.640Z,27.57
2018-11-13T02:34:26.341Z,26.30
2018-11-13T02:36:54.826Z,27.67
2018-11-13T02:39:23.436Z,28.40
2018-11-13T02:41:51.991Z,26.17
2018-11-13T02:44:20.530Z,27.23
2018-11-13T02:46:49.115Z,27.97
2018-11-13T02:49:17.822Z,27.50
2018-11-13T02:51:46.391Z,28.77
2018-11-13T02:54:15.299Z,28.80
2018-11-13T02:56:43.839Z,26.73
2018-11-13T02:59:12.514Z,29.00
2018-11-13T03:01:41.257Z,27.07
2018-11-13T03:04:09.987Z,27.23
2018-11-13T03:06:38.609Z,28.23
2018-11-13T03:09:08.223Z,26.73
2018-11-13T03:11:37.474Z,27.80
2018-11-13T03:14:06.350Z,27.43
2018-11-13T03:16:35.174Z,27.47
2018-11-13T03:19:03.797Z,26.17
2018-11-13T03:21:32.397Z,27.47
2018-11-13T03:24:00.929Z,26.33
2018-11-13T03:26:29.537Z,26.87
2018-11-13T03:28:58.103Z,27.27
2018-11-13T03:31:26.830Z,24.83
2018-11-13T03:33:55.446Z,28.10
2018-11-13T03:36:23.997Z,25.70
2018-11-13T03:38:52.950Z,25.63
2018-11-13T03:41:21.421Z,27.43
2018-11-13T03:43:49.993Z,23.60
2018-11-13T03:46:18.693Z,24.30
2018-11-13T03:48:47.375Z,25.97
2018-11-13T03:51:16.172Z,23.83
2018-11-13T03:53:44.990Z,22.50
2018-11-13T03:56:13.776Z,23.40
2018-11-13T03:58:43.424Z,22.50
2018-11-13T04:01:12.141Z,21.70
2018-11-13T04:03:41.025Z,18.30
2018-11-13T04:06:09.816Z,19.77
2018-11-13T04:08:38.544Z,18.13
2018-11-13T04:11:07.425Z,17.83
2018-11-13T04:13:36.367Z,13.43
2018-11-13T04:16:05.162Z,14.67
2018-11-13T04:18:34.054Z,12.90
2018-11-13T04:21:02.933Z,11.97
2018-11-13T04:23:31.675Z,10.43
2018-11-13T04:26:02.647Z,10.83
2018-11-13T04:28:31.404Z,11.50
2018-11-13T04:31:00.094Z,11.90
2018-11-13T04:33:28.922Z,12.77
2018-11-13T04:35:58.477Z,14.27
2018-11-13T04:38:27.340Z,13.13
2018-11-13T04:40:56.230Z,14.10
2018-11-13T04:43:24.987Z,14.27
2018-11-13T04:45:53.914Z,13.80
2018-11-13T04:48:22.801Z,13.00
2018-11-13T04:50:51.597Z,13.10
2018-11-13T04:53:20.860Z,12.87
2018-11-13T04:55:49.689Z,11.77
2018-11-13T04:58:18.576Z,11.80
2018-11-13T05:00:47.297Z,11.70
2018-11-13T05:03:16.085Z,10.80
2018-11-13T05:05:45.045Z,10.03
2018-11-13T05:08:13.667Z,10.00
2018-11-13T05:10:42.413Z,8.63
2018-11-13T05:13:11.381Z,8.90
2018-11-13T05:15:40.144Z,8.13
2018-11-13T05:18:08.827Z,7.57
2018-11-13T05:20:37.761Z,8.90
2018-11-13T05:23:06.615Z,8.60
2018-11-13T05:25:35.440Z,8.07
2018-11-13T05:28:04.937Z,7.80
2018-11-13T05:30:33.545Z,7.60
2018-11-13T05:33:02.234Z,7.33
2018-11-13T05:35:30.834Z,8.10
2018-11-13T05:37:59.619Z,6.73
2018-11-13T05:40:28.433Z,7.23
2018-11-13T05:42:57.263Z,7.07
2018-11-13T05:45:26.619Z,7.93
2018-11-13T05:47:55.496Z,6.80
2018-11-13T05:50:24.297Z,6.33
2018-11-13T05:52:54.079Z,6.40
2018-11-13T05:55:22.860Z,5.63
2018-11-13T05:57:51.797Z,5.87
2018-11-13T06:00:27.388Z,6.17
2018-11-13T06:02:56.140Z,6.77
2018-11-13T06:05:24.730Z,6.33
2018-11-13T06:07:53.336Z,7.07
2018-11-13T06:10:22.233Z,6.80
2018-11-13T06:12:50.770Z,6.37
2018-11-13T06:15:19.873Z,6.33
2018-11-13T06:17:48.475Z,6.63
2018-11-13T06:20:17.283Z,6.40
2018-11-13T06:22:45.883Z,5.90
2018-11-13T06:25:15.863Z,6.50
2018-11-13T06:27:45.600Z,6.63
2018-11-13T06:30:17.506Z,6.67
2018-11-13T06:32:46.934Z,6.20
2018-11-13T06:35:15.718Z,5.70
2018-11-13T06:37:44.675Z,5.90
2018-11-13T06:40:13.750Z,5.97
2018-11-13T06:42:42.643Z,6.77
2018-11-13T06:45:13.981Z,5.90
2018-11-13T06:47:43.418Z,5.93
2018-11-13T06:50:12.659Z,5.37
2018-11-13T06:52:41.573Z,6.27
2018-11-13T06:55:14.301Z,6.30
2018-11-13T06:57:42.803Z,5.50
2018-11-13T07:00:11.350Z,5.70
2018-11-13T07:02:39.909Z,5.87
2018-11-13T07:05:10.664Z,6.23
2018-11-13T07:07:39.463Z,5.33
2018-11-13T07:10:09.467Z,5.57
2018-11-13T07:12:41.165Z,5.53
2018-11-13T07:15:11.098Z,5.23
2018-11-13T07:17:39.736Z,6.00
2018-11-13T07:20:09.176Z,5.40
2018-11-13T07:22:37.746Z,4.47
2018-11-13T07:25:06.358Z,4.60
2018-11-13T07:27:35.154Z,4.20
2018-11-13T07:30:03.794Z,4.60
2018-11-13T07:32:32.289Z,4.07
2018-11-13T07:35:00.914Z,3.53
2018-11-13T07:37:29.575Z,3.60
2018-11-13T07:39:58.098Z,3.40
2018-11-13T07:42:26.889Z,2.63
2018-11-13T07:44:55.369Z,3.03
2018-11-13T07:47:23.971Z,2.93
2018-11-13T07:49:52.484Z,2.63
2018-11-13T07:52:21.092Z,3.10
2018-11-13T07:54:49.942Z,3.20
2018-11-13T07:57:19.572Z,2.80
2018-11-13T07:59:48.105Z,2.50
2018-11-13T08:02:16.598Z,2.40
2018-11-13T08:04:45.075Z,3.10
2018-11-13T08:07:13.572Z,2.50
2018-11-13T08:09:42.718Z,2.73
2018-11-13T08:12:11.352Z,3.03
2018-11-13T08:14:39.939Z,3.60
2018-11-13T08:17:08.680Z,2.77
2018-11-13T08:19:37.557Z,2.77
2018-11-13T08:22:06.487Z,3.07
2018-11-13T08:24:35.451Z,3.10
2018-11-13T08:27:04.191Z,2.63
2018-11-13T08:29:32.955Z,3.20
2018-11-13T08:32:01.773Z,3.37
2018-11-13T08:34:30.417Z,2.80
2018-11-13T08:36:59.408Z,2.60
2018-11-13T08:39:27.988Z,2.53
2018-11-13T08:41:56.614Z,2.60
2018-11-13T08:44:25.223Z,2.20
2018-11-13T08:46:53.837Z,1.90
2018-11-13T08:49:22.661Z,2.00
2018-11-13T08:51:51.513Z,2.20
2018-11-13T08:54:20.165Z,2.00
2018-11-13T08:56:48.724Z,1.97
2018-11-13T08:59:17.566Z,1.80
2018-11-13T09:01:46.227Z,1.93
2018-11-13T09:04:15.056Z,2.10
2018-11-13T09:06:43.868Z,2.00
2018-11-13T09:09:13.660Z,1.80
2018-11-13T09:11:42.535Z,2.10
2018-11-13T09:14:11.224Z,2.20
2018-11-13T09:16:39.781Z,1.90
2018-11-13T09:19:08.502Z,2.20
2018-11-13T09:21:37.097Z,2.33
2018-11-13T09:24:05.858Z,2.00
2018-11-13T09:26:34.367Z,2.13
2018-11-13T09:29:02.876Z,1.90
2018-11-13T09:31:31.675Z,2.73
2018-11-13T09:34:00.133Z,2.10
2018-11-13T09:36:28.621Z,2.87
2018-11-13T09:38:57.344Z,2.47
2018-11-13T09:41:25.798Z,2.17
2018-11-13T09:43:54.576Z,1.87
2018-11-13T09:46:23.306Z,2.37
2018-11-13T09:48:51.785Z,2.40
2018-11-13T09:51:20.288Z,2.27
2018-11-13T09:53:49.008Z,1.93
2018-11-13T09:56:17.407Z,2.43
2018-11-13T09:58:45.864Z,2.00
2018-11-13T10:01:14.566Z,2.10
2018-11-13T10:03:43.218Z,2.10
2018-11-13T10:06:11.141Z,2.93
2018-11-13T10:08:39.584Z,2.27
2018-11-13T10:11:08.030Z,2.27
2018-11-13T10:13:36.462Z,1.80
2018-11-13T10:16:04.923Z,2.20
2018-11-13T10:18:33.371Z,2.00
2018-11-13T10:21:01.807Z,1.60
2018-11-13T10:23:30.360Z,2.30
2018-11-13T10:25:58.763Z,1.80
2018-11-13T10:28:27.229Z,2.80
2018-11-13T10:30:55.894Z,4.70
2018-11-13T10:33:24.356Z,2.77
2018-11-13T10:35:52.814Z,2.90
2018-11-13T10:38:21.236Z,2.13
2018-11-13T10:40:49.925Z,2.20
2018-11-13T10:43:18.318Z,2.10
2018-11-13T10:45:46.898Z,2.37
2018-11-13T10:48:15.468Z,2.20
2018-11-13T10:50:43.982Z,2.20
2018-11-13T10:53:12.540Z,1.80
2018-11-13T10:55:41.138Z,2.73
2018-11-13T10:58:09.759Z,2.77
2018-11-13T11:00:43.516Z,2.20
2018-11-13T11:03:19.001Z,2.27
2018-11-13T11:05:47.629Z,2.33
2018-11-13T11:08:16.144Z,2.13
2018-11-13T11:10:44.651Z,1.80
2018-11-13T11:13:13.464Z,2.00
2018-11-13T11:15:42.031Z,1.83
2018-11-13T11:18:10.926Z,1.50
2018-11-13T11:20:39.587Z,1.57
2018-11-13T11:23:08.498Z,2.43
2018-11-13T11:25:37.246Z,2.03
2018-11-13T11:28:06.161Z,2.73
2018-11-13T11:30:35.006Z,1.83
2018-11-13T11:33:03.916Z,2.10
2018-11-13T11:35:32.594Z,2.70
2018-11-13T11:38:01.390Z,1.97
2018-11-13T11:40:30.025Z,2.00
2018-11-13T11:42:58.711Z,2.07
2018-11-13T11:45:27.345Z,2.20
2018-11-13T11:47:56.085Z,1.97
2018-11-13T11:50:25.245Z,3.10
2018-11-13T11:52:54.517Z,1.90
2018-11-13T11:55:23.113Z,2.03
2018-11-13T11:57:52.141Z,2.27
2018-11-13T12:00:26.228Z,2.07
2018-11-13T12:02:55.296Z,1.80
2018-11-13T12:05:24.300Z,2.00
2018-11-13T12:07:53.299Z,1.97
2018-11-13T12:10:22.284Z,1.73
2018-11-13T12:12:51.143Z,2.10
2018-11-13T12:15:19.634Z,2.00
2018-11-13T12:17:48.658Z,2.20
2018-11-13T12:20:17.501Z,2.00
2018-11-13T12:22:46.637Z,2.50
2018-11-13T12:25:19.736Z,1.53
2018-11-13T12:27:48.262Z,1.97
2018-11-13T12:30:20.060Z,1.93
2018-11-13T12:32:49.470Z,2.23
2018-11-13T12:35:18.877Z,1.80
2018-11-13T12:37:47.345Z,2.27
2018-11-13T12:40:16.936Z,2.03
2018-11-13T12:42:46.575Z,1.90
2018-11-13T12:45:14.753Z,1.53
2018-11-13T12:47:43.742Z,1.83
2018-11-13T12:50:13.185Z,2.07
2018-11-13T12:52:41.796Z,1.80
2018-11-13T12:55:12.593Z,2.20
2018-11-13T12:57:41.193Z,1.70
2018-11-13T13:00:16.492Z,1.83
2018-11-13T13:02:45.226Z,1.87
2018-11-13T13:05:13.905Z,1.70
2018-11-13T13:07:42.418Z,1.80
2018-11-13T13:10:12.723Z,2.10
2018-11-13T13:12:41.191Z,2.37
2018-11-13T13:15:11.657Z,2.30
2018-11-13T13:17:40.193Z,2.00
2018-11-13T13:20:11.029Z,1.83
2018-11-13T13:22:39.782Z,1.53
2018-11-13T13:25:10.626Z,2.00
2018-11-13T13:27:39.414Z,1.93
2018-11-13T13:30:09.934Z,2.23
2018-11-13T13:32:38.390Z,1.70
2018-11-13T13:35:48.179Z,1.80
2018-11-13T13:38:16.702Z,2.23
2018-11-13T13:40:46.161Z,1.70
2018-11-13T13:43:15.238Z,2.63
2018-11-13T13:45:44.557Z,1.60
2018-11-13T13:48:13.039Z,2.10
2018-11-13T13:50:41.529Z,1.83
2018-11-13T13:53:11.793Z,1.83
2018-11-13T13:55:40.618Z,1.77
2018-11-13T13:58:09.333Z,2.13
2018-11-13T14:00:37.799Z,2.27
2018-11-13T14:03:07.403Z,1.97
2018-11-13T14:05:35.872Z,1.87
2018-11-13T14:08:04.538Z,1.97
2018-11-13T14:10:33.035Z,2.30
2018-11-13T14:13:01.465Z,1.93
2018-11-13T14:15:30.029Z,2.00
2018-11-13T14:17:58.693Z,1.90
2018-11-13T14:20:27.176Z,1.77
2018-11-13T14:22:55.608Z,2.27
2018-11-13T14:25:24.058Z,1.53
2018-11-13T14:27:52.517Z,2.30
2018-11-13T14:30:25.089Z,1.47
2018-11-13T14:32:54.537Z,2.03
2018-11-13T14:35:23.043Z,2.30
2018-11-13T14:37:51.638Z,2.17
2018-11-13T14:40:23.567Z,2.37
2018-11-13T14:42:52.041Z,2.23
2018-11-13T14:45:21.552Z,2.47
2018-11-13T14:47:50.642Z,1.83
2018-11-13T14:50:20.357Z,2.50
2018-11-13T14:52:49.382Z,2.07
2018-11-13T14:55:21.133Z,2.33
2018-11-13T14:57:49.808Z,2.40
2018-11-13T15:00:20.946Z,1.90
2018-11-13T15:02:49.866Z,2.13
2018-11-13T15:05:19.439Z,1.80
2018-11-13T15:07:49.136Z,2.00
2018-11-13T15:10:29.811Z,2.23
2018-11-13T15:12:58.260Z,2.10
2018-11-13T15:15:26.882Z,2.07
2018-11-13T15:17:55.256Z,1.93
2018-11-13T15:20:23.714Z,2.47
2018-11-13T15:22:52.173Z,2.60
2018-11-13T15:25:20.659Z,1.87
2018-11-13T15:27:49.137Z,2.23
2018-11-13T15:30:25.715Z,2.00
2018-11-13T15:32:55.580Z,2.40
2018-11-13T15:35:24.079Z,2.00
2018-11-13T15:37:52.614Z,1.67
2018-11-13T15:40:22.543Z,2.23
2018-11-13T15:42:51.045Z,2.40
2018-11-13T15:45:20.035Z,2.10
2018-11-13T15:47:49.296Z,2.37
2018-11-13T15:50:20.339Z,2.13
2018-11-13T15:52:48.834Z,2.93
2018-11-13T15:55:17.781Z,1.93
2018-11-13T15:57:46.785Z,2.17
2018-11-13T16:00:19.421Z,2.20
2018-11-13T16:02:48.076Z,2.03
2018-11-13T16:05:31.310Z,2.40
2018-11-13T16:08:00.744Z,2.13
2018-11-13T16:10:29.218Z,2.70
2018-11-13T16:12:57.960Z,2.60
2018-11-13T16:15:26.998Z,1.93
2018-11-13T16:17:56.452Z,2.17
2018-11-13T16:20:25.406Z,2.80
2018-11-13T16:22:53.861Z,1.70
2018-11-13T16:25:22.357Z,2.23
2018-11-13T16:27:50.887Z,2.83
2018-11-13T16:30:21.129Z,2.60
2018-11-13T16:32:50.176Z,2.63
2018-11-13T16:35:19.567Z,2.57
2018-11-13T16:37:48.600Z,2.20
2018-11-13T16:40:20.273Z,2.90
2018-11-13T16:42:48.726Z,2.97
2018-11-13T16:45:18.328Z,2.20
2018-11-13T16:47:47.017Z,2.93
2018-11-13T16:50:18.669Z,2.43
2018-11-13T16:52:47.250Z,2.57
2018-11-13T16:55:20.945Z,2.40
2018-11-13T16:57:50.265Z,2.73
2018-11-13T17:00:19.454Z,3.93
2018-11-13T17:02:47.894Z,2.60
2018-11-13T17:05:17.238Z,2.70
2018-11-13T17:07:45.730Z,2.77
2018-11-13T17:10:15.927Z,3.37
2018-11-13T17:12:44.688Z,2.73
2018-11-13T17:15:15.315Z,3.03
2018-11-13T17:17:44.369Z,2.53
2018-11-13T17:20:13.458Z,2.73
2018-11-13T17:22:42.409Z,2.40
2018-11-13T17:25:12.012Z,3.10
2018-11-13T17:27:41.517Z,3.03
2018-11-13T17:30:12.155Z,2.80
2018-11-13T17:32:40.986Z,3.13
2018-11-13T17:35:10.648Z,2.63
2018-11-13T17:37:39.126Z,3.00
2018-11-13T17:40:11.797Z,3.03
2018-11-13T17:42:40.274Z,2.80
2018-11-13T17:45:11.913Z,4.00
2018-11-13T17:47:40.393Z,6.07
2018-11-13T17:50:11.856Z,3.33
2018-11-13T17:52:40.393Z,2.97
2018-11-13T17:55:09.521Z,6.47
2018-11-13T17:57:38.001Z,3.93
2018-11-13T18:00:17.288Z,4.27
2018-11-13T18:02:47.061Z,3.93
2018-11-13T18:05:15.764Z,4.07
2018-11-13T18:07:44.414Z,3.87
2018-11-13T18:10:13.055Z,3.50
2018-11-13T18:12:41.537Z,3.83
2018-11-13T18:15:12.186Z,3.50
2018-11-13T18:17:40.653Z,3.67
2018-11-13T18:20:11.176Z,3.80
2018-11-13T18:22:40.117Z,3.30
2018-11-13T18:25:15.072Z,3.97
2018-11-13T18:27:44.857Z,3.87
2018-11-13T18:30:15.604Z,4.30
2018-11-13T18:32:44.561Z,3.97
2018-11-13T18:35:18.329Z,3.70
2018-11-13T18:37:47.521Z,3.33
2018-11-13T18:40:17.044Z,4.23
2018-11-13T18:42:46.690Z,4.33
2018-11-13T18:45:17.857Z,4.40
2018-11-13T18:47:46.661Z,3.40
2018-11-13T18:50:18.111Z,4.63
2018-11-13T18:52:46.829Z,3.60
2018-11-13T18:55:15.974Z,3.77
2018-11-13T18:57:44.641Z,4.90
2018-11-13T19:00:17.566Z,4.90
2018-11-13T19:02:46.319Z,4.53
2018-11-13T19:05:15.637Z,4.07
2018-11-13T19:07:44.716Z,4.47
2018-11-13T19:10:25.725Z,4.90
2018-11-13T19:12:55.146Z,5.13
2018-11-13T19:15:23.589Z,4.20
2018-11-13T19:17:52.448Z,4.63
2018-11-13T19:20:21.861Z,4.50
2018-11-13T19:22:50.281Z,4.20
2018-11-13T19:25:22.111Z,4.83
2018-11-13T19:27:50.995Z,4.47
2018-11-13T19:30:20.265Z,4.87
2018-11-13T19:32:48.749Z,5.17
2018-11-13T19:35:17.798Z,4.50
2018-11-13T19:37:46.202Z,4.67
2018-11-13T19:40:17.674Z,4.23
2018-11-13T19:42:46.922Z,4.67
2018-11-13T19:45:15.985Z,4.53
2018-11-13T19:47:44.403Z,4.70
2018-11-13T19:50:14.517Z,4.93
2018-11-13T19:52:42.978Z,5.23
2018-11-13T19:55:12.667Z,5.53
2018-11-13T19:57:41.870Z,5.10
2018-11-13T20:00:12.493Z,5.40
2018-11-13T20:02:40.978Z,4.90
2018-11-13T20:05:10.941Z,6.13
2018-11-13T20:07:39.464Z,6.70
2018-11-13T20:10:12.092Z,6.03
2018-11-13T20:12:40.521Z,4.80
2018-11-13T20:15:10.026Z,5.07
2018-11-13T20:17:38.550Z,5.63
2018-11-13T20:20:09.912Z,5.47
2018-11-13T20:22:38.660Z,5.30
2018-11-13T20:25:09.093Z,4.70
2018-11-13T20:27:38.025Z,5.50
2018-11-13T20:30:09.026Z,6.10
2018-11-13T20:32:37.530Z,5.83
2018-11-13T20:35:06.820Z,5.20
2018-11-13T20:37:35.287Z,5.37
2018-11-13T20:40:03.881Z,6.37
2018-11-13T20:42:32.378Z,7.00
2018-11-13T20:45:00.828Z,6.20
2018-11-13T20:47:29.429Z,6.33
2018-11-13T20:49:57.956Z,5.87
2018-11-13T20:52:26.914Z,5.57
2018-11-13T20:54:55.414Z,6.50
2018-11-13T20:57:23.901Z,5.90
2018-11-13T20:59:52.393Z,6.70
2018-11-13T21:02:20.870Z,5.73
2018-11-13T21:04:49.557Z,6.57
2018-11-13T21:07:18.064Z,6.90
2018-11-13T21:09:46.569Z,5.50
2018-11-13T21:12:14.948Z,6.33
2018-11-13T21:14:43.419Z,5.80
2018-11-13T21:17:12.277Z,6.23
2018-11-13T21:19:40.571Z,6.87
2018-11-13T21:22:09.141Z,6.57
2018-11-13T21:24:37.603Z,6.50
2018-11-13T21:27:06.147Z,6.60
2018-11-13T21:29:34.625Z,7.40
2018-11-13T21:32:03.094Z,7.10
2018-11-13T21:34:31.554Z,5.97
2018-11-13T21:37:00.101Z,6.10
2018-11-13T21:39:28.438Z,6.73
2018-11-13T21:41:56.896Z,6.10
2018-11-13T21:44:25.306Z,5.57
2018-11-13T21:46:53.784Z,6.20
2018-11-13T21:49:22.255Z,5.67
2018-11-13T21:51:50.723Z,6.40
2018-11-13T21:54:19.191Z,6.60
2018-11-13T21:56:47.657Z,7.03
2018-11-13T21:59:16.087Z,6.53
2018-11-13T22:01:44.494Z,6.50
2018-11-13T22:04:12.957Z,6.17
2018-11-13T22:06:41.497Z,6.77
2018-11-13T22:09:11.225Z,6.83
2018-11-13T22:11:39.646Z,7.20
2018-11-13T22:14:08.063Z,6.90
2018-11-13T22:16:36.597Z,6.27
2018-11-13T22:19:05.151Z,7.60
2018-11-13T22:21:33.573Z,7.07
2018-11-13T22:24:02.078Z,7.60
2018-11-13T22:26:30.496Z,8.07
2018-11-13T22:28:59.147Z,7.30
2018-11-13T22:31:27.629Z,7.87
2018-11-13T22:33:56.038Z,8.50
2018-11-13T22:36:24.719Z,9.20
2018-11-13T22:38:53.182Z,7.50
2018-11-13T22:41:21.624Z,8.97
2018-11-13T22:43:49.994Z,8.53
2018-11-13T22:46:18.401Z,8.87
2018-11-13T22:48:46.829Z,8.87
2018-11-13T22:51:15.246Z,8.73
2018-11-13T22:53:43.733Z,7.87
2018-11-13T22:56:12.143Z,9.70
2018-11-13T22:58:40.668Z,8.10
2018-11-13T23:01:09.203Z,8.27
2018-11-13T23:03:38.079Z,8.43
2018-11-13T23:06:06.092Z,7.00
2018-11-13T23:08:34.517Z,8.33
2018-11-13T23:11:08.268Z,7.00
2018-11-13T23:13:36.684Z,7.47
2018-11-13T23:16:05.678Z,7.67
2018-11-13T23:18:34.126Z,7.10
2018-11-13T23:21:02.547Z,7.13
2018-11-13T23:23:30.930Z,7.23
2018-11-13T23:25:59.384Z,6.50
2018-11-13T23:28:27.786Z,7.13
2018-11-13T23:30:56.197Z,6.73
2018-11-13T23:33:24.693Z,7.27
2018-11-13T23:35:53.143Z,7.37
2018-11-13T23:38:21.505Z,7.47
2018-11-13T23:40:49.939Z,7.10
2018-11-13T23:43:18.325Z,7.93
2018-11-13T23:45:46.732Z,7.07
2018-11-13T23:48:15.219Z,7.30
2018-11-13T23:50:43.613Z,7.50
2018-11-13T23:53:12.018Z,7.23
2018-11-13T23:55:40.549Z,7.70
2018-11-13T23:58:08.854Z,7.17
